Aromas, California
Current Conditions -  °F | °C
As of 3:53 AM on Thursday 23 Oct 2014 (Local Time) from KWVI Reporting Station
Clear Clear  
Wind Chill: 13°   Ceiling: Unl
Heat Index: 13°   Visibility: 10mi
Dew Point:   Wind: 5mph
Humidity: 77%   Direction: 300°WNW
Pressure: 30.02"   Gusts: NA
Location:  36.88°N, 121.64°W
Report Text: KWVI 231053Z AUTO 30004KT 10SM CLR 13/09 A3002 RMK AO2 SLP165 T01280089
Loading
Personal Weather Stations






























Interactive Weather Map New forecast layout! Learn more

10-Day Weather Forecast

Advertisements
Track Severe Weather on mobile